CheckWX is a tool to help pilots better visualize weather data.  It is not intended as a substitute for an official pre-flight weather briefing.

12:59:32 UTC

SAZS METAR
San Carlos De Bariloche Airport
San Carlos de Bariloche, Argentina
Current

60 mins ago

SAZS 131200Z 31017KT 9999 FEW030 BKN100 12/04 Q1017
Observed
Nov-13 @ 12:00 UTC
Wind
  • 310° at 17 KTS
Visibility
10,000+ meters
Flight Rules
VFR
Cloud Levels
  • Few at 3,000' AGL
  • Broken at 10,000' AGL
Temperature
12°C / 54°F
Dewpoint
C / 39°F
Humidity
58%
Altimeter
30.03" Hg
Pressure
1016.92 hPa
Previous

2 hours ago

SAZS 131100Z 29015KT 9999 FEW030 SCT100 12/04 Q1017
Observed
Nov-13 @ 11:00 UTC
Wind
  • 290° at 15 KTS
Visibility
10,000+ meters
Flight Rules
VFR
Cloud Levels
  • Few at 3,000' AGL
  • Scattered at 10,000' AGL
Temperature
12°C / 54°F
Dewpoint
C / 39°F
Humidity
58%
Altimeter
30.03" Hg
Pressure
1016.92 hPa
Previous

3 hours ago

SAZS 131000Z 26007KT 9999 FEW030 09/05 Q1016
Observed
Nov-13 @ 10:00 UTC
Wind
  • 260° at 7 KTS
Visibility
10,000+ meters
Flight Rules
VFR
Cloud Levels
  • Few at 3,000' AGL
Temperature
C / 48°F
Dewpoint
C / 41°F
Humidity
76%
Altimeter
30" Hg
Pressure
1015.92 hPa